Time;durP1;ratioP1;P1;durP2;ratioP2;P2;SDS_P1;SDS_P2;PMS_P1;PMS_P2;Temp;Humidity;BMP_temperature;BMP_pressure;BME280_temperature;BME280_humidity;BME280_pressure;Samples;Min_cycle;Max_cycle;Signal;HPM_P1;HPM_P2
2022/12/21 00:01:16;;;;;;;9.82;3.95;;;17.80;35.90;;;;;;5041801;28;20157;-65
2022/12/21 00:03:48;;;;;;;14.90;3.50;;;17.80;36.20;;;;;;5041738;28;20070;-66
2022/12/21 00:06:14;;;;;;;8.98;3.53;;;17.70;35.50;;;;;;5038980;28;20070;-65
2022/12/21 00:08:43;;;;;;;10.18;3.85;;;17.60;36.10;;;;;;5040141;28;20104;-64
2022/12/21 00:11:11;;;;;;;7.95;3.90;;;17.60;36.40;;;;;;5042226;28;20077;-66
2022/12/21 00:13:38;;;;;;;14.27;4.18;;;17.50;36.60;;;;;;5036311;28;20566;-66
2022/12/21 00:16:07;;;;;;;12.23;3.88;;;17.40;37.00;;;;;;5034627;28;20097;-64
2022/12/21 00:18:35;;;;;;;12.55;3.60;;;17.40;37.30;;;;;;5040387;28;20081;-66
2022/12/21 00:21:22;;;;;;;10.57;3.30;;;17.20;37.70;;;;;;5039810;28;20421;-65
2022/12/21 00:23:51;;;;;;;8.30;3.58;;;17.20;38.20;;;;;;5042184;28;20081;-63
2022/12/21 00:26:23;;;;;;;13.93;3.63;;;17.10;38.50;;;;;;5040443;28;20101;-63
2022/12/21 00:28:51;;;;;;;15.90;4.28;;;17.10;39.30;;;;;;5038078;28;20078;-62
2022/12/21 00:31:19;;;;;;;8.00;3.60;;;17.00;39.60;;;;;;5039451;28;20578;-63
2022/12/21 00:33:47;;;;;;;17.77;4.50;;;17.00;40.20;;;;;;5040780;28;20098;-65
2022/12/21 00:36:16;;;;;;;9.80;4.55;;;16.90;40.60;;;;;;5043509;28;20121;-63
2022/12/21 00:38:43;;;;;;;18.60;5.20;;;16.80;41.00;;;;;;5038906;28;20482;-62
2022/12/21 00:41:12;;;;;;;11.93;4.20;;;16.70;41.90;;;;;;5041718;28;20127;-64
2022/12/21 00:43:40;;;;;;;14.80;5.60;;;16.50;42.10;;;;;;5044973;28;20070;-63
2022/12/21 00:46:07;;;;;;;18.20;6.28;;;16.50;42.20;;;;;;5044255;28;20096;-65
2022/12/21 00:48:36;;;;;;;33.40;8.65;;;16.30;42.70;;;;;;5042485;28;20118;-64
2022/12/21 00:51:04;;;;;;;24.00;6.95;;;16.20;43.50;;;;;;5040302;28;20246;-63
2022/12/21 00:53:31;;;;;;;28.38;7.88;;;16.10;44.10;;;;;;5047679;28;20160;-63
2022/12/21 00:55:59;;;;;;;32.75;8.27;;;16.00;44.90;;;;;;5046083;28;20093;-64
2022/12/21 00:58:28;;;;;;;30.60;7.35;;;15.80;45.30;;;;;;5045364;28;20550;-65
2022/12/21 01:00:59;;;;;;;34.50;8.65;;;15.80;45.70;;;;;;5046298;28;20135;-64
2022/12/21 01:03:27;;;;;;;39.83;8.80;;;15.60;45.90;;;;;;5045115;28;20117;-64
2022/12/21 01:05:54;;;;;;;47.20;9.75;;;15.50;46.00;;;;;;5044990;28;20535;-64
2022/12/21 01:08:21;;;;;;;65.35;15.50;;;15.40;46.20;;;;;;5044496;28;20573;-65
2022/12/21 01:10:48;;;;;;;54.35;14.13;;;15.30;46.10;;;;;;5046266;28;20077;-64
2022/12/21 17:30:32;;;;;;;9.23;3.50;;;17.60;68.90;;;;;;5108841;27;20611;-64
2022/12/21 17:33:21;;;;;;;9.27;2.88;;;16.90;68.70;;;;;;5111619;28;20149;-63
2022/12/21 17:35:48;;;;;;;8.50;2.78;;;17.30;37.70;;;;;;5114251;28;20476;-63
2022/12/21 17:38:16;;;;;;;17.52;3.28;;;17.90;37.30;;;;;;5119825;27;20079;-64
2022/12/21 17:40:42;;;;;;;5.55;2.88;;;18.20;36.30;;;;;;5110433;28;20460;-63
2022/12/21 17:43:09;;;;;;;14.98;3.30;;;18.60;36.30;;;;;;5113387;28;20450;-65
2022/12/21 17:45:36;;;;;;;12.82;3.45;;;18.80;35.40;;;;;;5119534;28;20140;-64
2022/12/21 17:48:03;;;;;;;8.63;3.05;;;19.30;35.20;;;;;;5113265;28;20086;-66
2022/12/21 17:50:36;;;;;;;12.40;3.22;;;19.70;34.80;;;;;;5108321;28;20082;-62
2022/12/21 17:53:03;;;;;;;9.32;4.20;;;20.10;34.30;;;;;;5109901;28;20094;-62
2022/12/21 17:55:30;;;;;;;12.70;4.18;;;20.20;33.90;;;;;;5105501;28;20136;-62
2022/12/21 17:57:57;;;;;;;12.82;3.88;;;20.30;33.50;;;;;;5120854;27;20079;-63
2022/12/21 18:00:26;;;;;;;8.02;4.38;;;20.40;33.40;;;;;;5108649;28;20071;-63
2022/12/21 18:56:59;;;;;;;18.67;6.15;;;24.00;28.30;;;;;;5110724;27;21062;-62
2022/12/21 18:59:26;;;;;;;18.08;5.40;;;25.10;27.60;;;;;;5119582;27;20128;-63
2022/12/21 19:01:57;;;;;;;13.43;5.93;;;25.80;27.30;;;;;;5107723;27;20083;-62
2022/12/21 19:04:27;;;;;;;20.05;6.65;;;25.80;27.40;;;;;;5107338;28;20086;-64
2022/12/21 19:06:54;;;;;;;14.27;4.38;;;24.30;28.40;;;;;;5106698;28;20108;-63
2022/12/21 19:09:23;;;;;;;14.38;5.30;;;23.80;27.30;;;;;;5111739;28;20510;-63
2022/12/21 19:11:49;;;;;;;13.27;5.75;;;23.30;28.40;;;;;;5107600;28;20087;-63
2022/12/21 19:14:22;;;;;;;17.70;6.43;;;23.50;29.00;;;;;;5114130;27;20099;-64
2022/12/21 19:16:51;;;;;;;14.80;5.28;;;23.50;28.50;;;;;;5109794;28;20559;-62
2022/12/21 19:19:22;;;;;;;20.77;5.82;;;23.30;28.90;;;;;;5111646;28;20141;-63
2022/12/21 19:21:52;;;;;;;17.45;5.35;;;23.30;28.70;;;;;;5104042;28;20825;-64
2022/12/21 19:24:25;;;;;;;11.38;4.82;;;23.10;29.20;;;;;;5106058;28;20067;-64
2022/12/21 19:26:51;;;;;;;11.15;4.10;;;23.10;28.90;;;;;;5106622;28;20075;-62
2022/12/21 19:29:20;;;;;;;12.25;4.03;;;22.80;28.30;;;;;;5109766;28;20075;-64
2022/12/21 19:31:48;;;;;;;11.18;4.45;;;22.70;28.70;;;;;;5112217;28;20087;-64
2022/12/21 19:34:15;;;;;;;17.15;4.30;;;22.70;28.90;;;;;;5112776;28;20078;-63
2022/12/21 19:36:46;;;;;;;17.70;4.65;;;22.60;28.90;;;;;;5106801;28;20105;-63
2022/12/21 19:39:28;;;;;;;13.63;5.97;;;22.40;29.10;;;;;;5107130;28;20068;-64
2022/12/21 19:41:55;;;;;;;16.58;5.38;;;22.20;29.60;;;;;;5105538;28;20087;-66
2022/12/21 19:44:28;;;;;;;11.65;5.35;;;22.20;29.50;;;;;;5108515;28;20064;-65
2022/12/21 19:46:54;;;;;;;18.55;5.13;;;22.20;29.40;;;;;;5118641;28;20161;-66
2022/12/21 19:49:23;;;;;;;12.77;4.70;;;22.20;29.00;;;;;;5109425;28;20496;-63
2022/12/21 19:51:49;;;;;;;16.02;4.75;;;22.10;29.20;;;;;;5108015;28;20075;-63
2022/12/21 19:54:16;;;;;;;8.95;4.72;;;22.30;29.50;;;;;;5107640;28;20059;-65
2022/12/21 19:56:47;;;;;;;23.38;5.97;;;22.30;29.00;;;;;;5107900;28;20111;-63
2022/12/21 19:59:20;;;;;;;21.00;5.75;;;22.00;28.80;;;;;;5112277;28;20067;-62
2022/12/21 20:01:47;;;;;;;15.02;5.00;;;22.20;29.30;;;;;;5118274;28;20071;-62
2022/12/21 20:04:32;;;;;;;14.95;5.07;;;22.30;29.60;;;;;;5112278;28;20393;-64
2022/12/21 20:06:59;;;;;;;15.80;5.28;;;22.50;29.20;;;;;;5107031;28;20562;-64
2022/12/21 20:09:27;;;;;;;17.17;5.35;;;22.50;28.70;;;;;;5098360;28;20091;-63
2022/12/21 20:11:57;;;;;;;16.70;3.00;;;22.50;28.40;;;;;;5097744;28;20071;-62
2022/12/21 20:14:41;;;;;;;7.40;4.07;;;22.30;27.10;;;;;;5097462;28;20144;-64
2022/12/21 20:17:20;;;;;;;7.63;3.55;;;22.20;27.80;;;;;;5091364;28;20542;-63
2022/12/21 20:19:47;;;;;;;15.85;4.53;;;22.30;28.10;;;;;;5100134;28;20075;-61
2022/12/21 20:22:16;;;;;;;9.52;3.72;;;22.70;28.00;;;;;;5093006;28;20068;-62
2022/12/21 20:24:45;;;;;;;8.27;3.90;;;22.70;27.80;;;;;;5093255;28;20084;-65
2022/12/21 20:27:35;;;;;;;5.78;3.80;;;22.60;27.20;;;;;;5095240;28;20064;-62
2022/12/21 20:30:06;;;;;;;17.15;4.18;;;22.60;27.50;;;;;;5093079;28;20068;-63
2022/12/21 20:32:33;;;;;;;8.63;4.10;;;22.70;27.40;;;;;;5095721;28;20102;-65
2022/12/21 20:35:00;;;;;;;10.02;3.47;;;22.60;27.40;;;;;;5096374;28;20087;-64
2022/12/21 20:37:26;;;;;;;11.00;3.60;;;22.60;27.40;;;;;;5096478;28;20064;-65
2022/12/21 20:39:53;;;;;;;20.98;4.00;;;22.60;27.10;;;;;;5095500;28;20083;-62
2022/12/21 20:45:24;;;;;;;11.23;3.88;;;22.50;27.70;;;;;;5093867;28;20078;-62
2022/12/21 20:47:53;;;;;;;11.77;3.17;;;22.70;27.20;;;;;;5099671;28;20071;-62
2022/12/21 20:50:36;;;;;;;11.48;3.22;;;22.80;26.90;;;;;;5090246;28;20088;-64
2022/12/21 20:53:06;;;;;;;5.80;2.95;;;22.90;26.90;;;;;;5089526;28;20498;-60
2022/12/21 20:58:17;;;;;;;12.50;3.30;;;22.80;26.90;;;;;;5090152;28;20547;-63
2022/12/21 21:00:43;;;;;;;5.68;3.35;;;22.90;26.90;;;;;;5096773;28;20083;-65
2022/12/21 21:03:20;;;;;;;5.97;2.05;;;23.00;26.80;;;;;;5093123;28;20109;-64
2022/12/21 21:05:46;;;;;;;12.38;2.38;;;22.90;26.00;;;;;;5090089;28;20493;-64
2022/12/21 21:08:17;;;;;;;3.90;2.45;;;22.90;25.60;;;;;;5095062;28;20083;-62
2022/12/21 21:10:44;;;;;;;7.75;2.72;;;23.00;26.00;;;;;;5091055;28;20432;-60
2022/12/21 21:13:11;;;;;;;12.27;2.85;;;22.70;26.40;;;;;;5095655;28;20159;-63
2022/12/21 21:15:41;;;;;;;5.00;2.53;;;22.80;26.80;;;;;;5089675;28;20631;-61
2022/12/21 21:18:16;;;;;;;11.48;3.33;;;22.90;26.60;;;;;;5093458;28;20132;-61
2022/12/21 21:23:27;;;;;;;4.13;2.28;;;23.00;26.30;;;;;;5090440;28;20116;-66
2022/12/21 21:25:54;;;;;;;8.85;2.30;;;23.00;26.40;;;;;;5089494;28;20083;-65
2022/12/21 21:28:23;;;;;;;5.93;1.70;;;23.00;26.40;;;;;;5089027;28;20531;-62
2022/12/21 21:30:52;;;;;;;4.78;1.88;;;23.00;26.60;;;;;;5093075;28;20158;-61
2022/12/21 21:33:19;;;;;;;4.47;2.50;;;23.10;26.20;;;;;;5094533;28;20154;-61
2022/12/21 21:35:49;;;;;;;7.07;2.33;;;23.00;26.40;;;;;;5094109;28;20091;-61
2022/12/21 21:41:32;;;;;;;5.47;2.00;;;23.00;26.30;;;;;;5089673;28;20653;-62
2022/12/21 21:44:03;;;;;;;5.18;2.00;;;23.00;26.60;;;;;;5088011;28;20068;-62
2022/12/21 21:46:30;;;;;;;4.22;2.13;;;23.00;26.70;;;;;;5090927;28;20532;-60
2022/12/21 21:49:28;;;;;;;4.53;2.30;;;22.90;26.80;;;;;;5092002;28;20556;-64
2022/12/21 21:51:55;;;;;;;7.25;1.90;;;22.90;26.80;;;;;;5091191;28;20079;-61
2022/12/21 21:54:23;;;;;;;3.45;1.70;;;22.90;26.30;;;;;;5096330;28;20074;-61
2022/12/21 21:56:55;;;;;;;12.55;11.43;;;22.90;26.50;;;;;;5098252;28;20110;-63
2022/12/21 21:59:28;;;;;;;5.88;2.00;;;22.90;26.40;;;;;;5091696;28;20147;-62
2022/12/21 22:01:59;;;;;;;8.27;2.05;;;22.80;27.00;;;;;;5092913;28;20071;-63
2022/12/21 22:04:27;;;;;;;3.88;1.60;;;22.80;27.00;;;;;;5091031;28;20496;-62
2022/12/21 22:06:54;;;;;;;2.20;1.60;;;22.70;26.70;;;;;;5095121;28;20076;-63
2022/12/21 22:09:20;;;;;;;9.38;2.60;;;22.70;27.20;;;;;;5094496;28;20075;-64
2022/12/21 22:11:49;;;;;;;8.63;2.22;;;22.70;27.40;;;;;;5092298;28;20182;-61
2022/12/21 22:14:22;;;;;;;6.82;2.25;;;22.80;27.60;;;;;;5092604;28;20095;-63
2022/12/21 22:16:49;;;;;;;12.63;3.78;;;22.80;27.40;;;;;;5092299;28;20616;-62
2022/12/21 22:33:57;;;;;;;8.27;1.77;;;22.70;28.00;;;;;;5092588;28;20482;-63
2022/12/21 22:44:42;;;;;;;4.32;2.10;;;22.80;27.50;;;;;;5091094;28;20078;-63
2022/12/21 22:47:09;;;;;;;11.10;2.83;;;22.70;27.50;;;;;;5098327;28;20552;-63
2022/12/21 22:49:35;;;;;;;19.38;3.78;;;22.70;27.60;;;;;;5092581;28;20421;-62
2022/12/21 22:52:01;;;;;;;12.00;3.13;;;22.70;27.70;;;;;;5100694;28;20070;-63
2022/12/21 22:54:28;;;;;;;9.02;2.95;;;22.70;28.00;;;;;;5096402;28;20197;-62
2022/12/21 22:56:54;;;;;;;6.28;2.65;;;22.70;28.10;;;;;;5098797;28;20138;-61
2022/12/21 22:59:22;;;;;;;13.35;3.47;;;22.70;28.50;;;;;;5092271;28;20072;-65
2022/12/21 23:01:48;;;;;;;7.85;3.28;;;22.70;28.70;;;;;;5090119;28;20516;-63
2022/12/21 23:04:20;;;;;;;8.93;8.10;;;22.60;28.70;;;;;;5091130;28;20064;-63
2022/12/21 23:06:47;;;;;;;9.23;2.58;;;22.60;28.80;;;;;;5088106;28;20078;-61
